Time;durP1;ratioP1;P1;durP2;ratioP2;P2;SDS_P1;SDS_P2;PMS_P1;PMS_P2;Temp;Humidity;BMP_temperature;BMP_pressure;BME280_temperature;BME280_humidity;BME280_pressure;Samples;Min_cycle;Max_cycle;Signal;HPM_P1;HPM_P2
2022/07/18 00:00:32;;;;;;;1.55;0.63;;;15.40;63.10;;;;;;5031421;28;20115;-85
2022/07/18 00:02:58;;;;;;;1.60;0.70;;;15.40;63.10;;;;;;5034370;28;20821;-83
2022/07/18 00:05:24;;;;;;;2.13;0.75;;;15.40;62.70;;;;;;5036596;28;20037;-84
2022/07/18 00:07:50;;;;;;;1.42;0.70;;;15.30;63.00;;;;;;5052926;28;20033;-83
2022/07/18 00:10:16;;;;;;;3.33;0.60;;;15.30;62.90;;;;;;5040694;28;20549;-87
2022/07/18 00:12:42;;;;;;;1.77;0.93;;;15.20;63.00;;;;;;5037920;28;20158;-85
2022/07/18 00:15:09;;;;;;;2.60;0.90;;;15.20;63.10;;;;;;5037786;28;20029;-86
2022/07/18 00:17:36;;;;;;;2.45;0.60;;;15.20;62.90;;;;;;5038628;28;20037;-85
2022/07/18 00:20:03;;;;;;;0.82;0.50;;;15.10;62.40;;;;;;5044665;28;20036;-87
2022/07/18 00:22:29;;;;;;;0.95;0.60;;;15.10;63.20;;;;;;5037450;28;20143;-86
2022/07/18 00:24:55;;;;;;;1.17;0.65;;;15.00;63.70;;;;;;5021419;28;20482;-85
2022/07/18 00:27:21;;;;;;;1.65;0.90;;;14.90;64.10;;;;;;5054302;28;20040;-85
2022/07/18 00:29:46;;;;;;;1.48;0.80;;;14.90;64.30;;;;;;5067963;28;20121;-86
2022/07/18 00:32:12;;;;;;;2.88;1.08;;;14.80;64.40;;;;;;5047001;28;20028;-86
2022/07/18 00:34:39;;;;;;;1.77;0.70;;;14.80;65.00;;;;;;5064439;28;20044;-85
2022/07/18 00:37:05;;;;;;;0.95;0.57;;;14.70;65.40;;;;;;5056060;28;20029;-85
2022/07/18 00:39:31;;;;;;;0.90;0.70;;;14.70;65.50;;;;;;5041473;28;20108;-84
2022/07/18 00:41:56;;;;;;;2.15;0.68;;;14.70;66.80;;;;;;5040514;28;20525;-85
2022/07/18 00:44:25;;;;;;;2.28;0.77;;;14.70;67.10;;;;;;5024288;28;20025;-86
2022/07/18 00:46:59;;;;;;;1.77;0.80;;;14.70;67.20;;;;;;5040714;28;20043;-86
2022/07/18 00:49:25;;;;;;;1.95;0.90;;;14.70;67.70;;;;;;5042007;28;20529;-84
2022/07/18 00:51:51;;;;;;;1.40;0.70;;;14.60;68.00;;;;;;5024387;28;20029;-86
2022/07/18 00:54:17;;;;;;;2.28;0.50;;;14.60;67.70;;;;;;5041842;28;20040;-86
2022/07/18 00:56:45;;;;;;;0.70;0.70;;;14.60;67.30;;;;;;5041715;28;20649;-86
2022/07/18 00:59:12;;;;;;;1.48;0.70;;;14.50;67.10;;;;;;5054308;28;20048;-86
2022/07/18 01:01:45;;;;;;;0.93;0.80;;;14.40;66.90;;;;;;5041613;28;20045;-85
2022/07/18 01:04:20;;;;;;;1.10;0.60;;;14.40;67.20;;;;;;5040448;28;20032;-86
2022/07/18 01:06:46;;;;;;;2.07;0.90;;;14.30;67.40;;;;;;5054459;28;20112;-83
2022/07/18 01:09:13;;;;;;;0.75;0.60;;;14.20;67.60;;;;;;5045309;28;20274;-85
2022/07/18 01:11:39;;;;;;;1.40;0.60;;;14.20;68.50;;;;;;5028649;28;20491;-85
2022/07/18 01:14:17;;;;;;;1.70;0.60;;;14.20;67.10;;;;;;5057287;28;20025;-86
2022/07/18 01:16:44;;;;;;;1.45;0.75;;;14.10;67.90;;;;;;5041243;28;20032;-86
2022/07/18 01:19:11;;;;;;;1.20;0.73;;;14.10;68.00;;;;;;5040415;28;20479;-86
2022/07/18 01:21:37;;;;;;;1.52;1.35;;;14.00;68.20;;;;;;5055493;28;20032;-85
2022/07/18 01:24:03;;;;;;;1.52;0.82;;;13.90;68.80;;;;;;5037351;28;20037;-86
2022/07/18 01:26:29;;;;;;;3.60;0.80;;;13.90;68.70;;;;;;5004952;28;20061;-85
2022/07/18 01:28:55;;;;;;;2.63;1.73;;;13.80;68.60;;;;;;5021648;28;20033;-85
2022/07/18 01:31:20;;;;;;;1.67;0.90;;;13.80;69.70;;;;;;5040357;28;20107;-83
2022/07/18 01:33:46;;;;;;;0.60;0.60;;;13.80;68.50;;;;;;5025431;28;20119;-85
2022/07/18 01:36:12;;;;;;;1.30;0.80;;;13.70;68.50;;;;;;5010524;28;20380;-85
2022/07/18 01:38:38;;;;;;;1.00;0.70;;;13.70;69.20;;;;;;5057459;28;20040;-84
2022/07/18 01:41:04;;;;;;;0.77;0.77;;;13.60;70.10;;;;;;5041501;28;20086;-86
2022/07/18 01:43:30;;;;;;;1.65;0.85;;;13.60;70.00;;;;;;5039159;28;20036;-86
2022/07/18 01:45:56;;;;;;;1.45;0.80;;;13.50;69.30;;;;;;5054174;28;20032;-86
2022/07/18 01:48:23;;;;;;;0.90;0.90;;;13.50;70.40;;;;;;5040275;28;20037;-86
2022/07/18 01:50:49;;;;;;;1.65;0.98;;;13.50;70.90;;;;;;5025083;28;20119;-86
2022/07/18 01:53:15;;;;;;;0.85;0.68;;;13.50;70.90;;;;;;5048827;28;20025;-86
2022/07/18 01:55:41;;;;;;;1.85;1.00;;;13.50;71.20;;;;;;5037270;28;20025;-86
2022/07/18 01:58:07;;;;;;;2.40;1.00;;;13.40;71.80;;;;;;5056755;28;20124;-83
2022/07/18 02:00:33;;;;;;;1.50;0.85;;;13.40;70.60;;;;;;5040009;28;20039;-86
2022/07/18 02:02:58;;;;;;;1.05;0.90;;;13.40;70.60;;;;;;5040588;28;20036;-86
2022/07/18 02:05:24;;;;;;;2.17;0.70;;;13.40;70.40;;;;;;5043330;28;20127;-85
2022/07/18 02:07:50;;;;;;;2.75;0.90;;;13.40;70.60;;;;;;5038859;28;20029;-85
2022/07/18 02:10:19;;;;;;;1.92;1.33;;;13.40;70.50;;;;;;5039899;28;20036;-84
2022/07/18 02:12:45;;;;;;;1.23;0.93;;;13.40;70.40;;;;;;5045023;28;20471;-86
2022/07/18 02:15:12;;;;;;;1.13;0.88;;;13.40;70.60;;;;;;5057009;28;20035;-86
2022/07/18 02:17:38;;;;;;;2.95;0.90;;;13.40;71.60;;;;;;5040935;28;20037;-85
2022/07/18 02:20:06;;;;;;;1.80;1.00;;;13.40;71.10;;;;;;5039730;28;20036;-84
2022/07/18 02:22:33;;;;;;;1.15;0.88;;;13.40;73.90;;;;;;5040144;28;20046;-84
2022/07/18 02:24:58;;;;;;;3.28;1.05;;;13.40;74.30;;;;;;5057145;28;20028;-86
2022/07/18 02:27:24;;;;;;;2.25;1.00;;;13.30;73.20;;;;;;5022004;28;20062;-84
2022/07/18 02:29:51;;;;;;;6.38;1.17;;;13.30;72.90;;;;;;5043272;28;20610;-85
2022/07/18 02:32:18;;;;;;;2.35;1.00;;;13.20;74.00;;;;;;5057068;28;20092;-83
2022/07/18 02:34:43;;;;;;;3.63;1.20;;;13.20;73.20;;;;;;5056033;28;20028;-84
2022/07/18 02:37:10;;;;;;;1.15;1.05;;;13.10;73.50;;;;;;5056701;28;20028;-85
2022/07/18 02:39:36;;;;;;;3.72;1.45;;;13.10;74.00;;;;;;5023039;28;20035;-87
2022/07/18 02:42:02;;;;;;;1.25;1.00;;;13.10;73.80;;;;;;5054947;28;20032;-86
2022/07/18 02:44:28;;;;;;;0.80;0.80;;;13.00;74.00;;;;;;5038155;28;20517;-87
2022/07/18 02:46:54;;;;;;;1.83;1.00;;;13.00;73.90;;;;;;5037977;28;20063;-87
2022/07/18 02:49:29;;;;;;;2.00;1.27;;;13.00;73.70;;;;;;5024255;28;20036;-85
2022/07/18 02:52:00;;;;;;;2.10;1.00;;;13.00;73.90;;;;;;5053534;28;20060;-87
2022/07/18 02:54:27;;;;;;;1.63;0.90;;;13.00;73.90;;;;;;5043375;28;20029;-87
2022/07/18 02:56:53;;;;;;;1.48;1.00;;;12.90;73.90;;;;;;5039255;28;20040;-85
2022/07/18 02:59:19;;;;;;;2.58;1.02;;;12.90;74.30;;;;;;5036666;28;20032;-87
2022/07/18 03:01:45;;;;;;;3.70;1.52;;;12.80;74.70;;;;;;5036472;28;20028;-86
2022/07/18 03:04:11;;;;;;;1.65;1.15;;;12.80;74.90;;;;;;5036810;28;20522;-87
2022/07/18 03:06:37;;;;;;;2.88;0.95;;;12.80;74.70;;;;;;5021767;28;20024;-85
2022/07/18 03:09:04;;;;;;;1.30;0.95;;;12.80;74.90;;;;;;5021617;28;20459;-87
2022/07/18 03:11:30;;;;;;;2.88;1.00;;;12.80;74.90;;;;;;5062270;28;20027;-85
2022/07/18 03:13:56;;;;;;;1.42;1.05;;;12.80;74.80;;;;;;5037483;28;20036;-85
2022/07/18 03:16:21;;;;;;;1.73;1.25;;;12.70;75.30;;;;;;5021569;28;20040;-87
2022/07/18 03:18:47;;;;;;;1.42;0.77;;;12.70;75.70;;;;;;5052937;28;20037;-85
2022/07/18 03:21:13;;;;;;;2.03;1.15;;;12.70;75.70;;;;;;5053728;28;20048;-86
2022/07/18 03:23:39;;;;;;;1.20;1.10;;;12.60;76.20;;;;;;5036195;28;20040;-87
2022/07/18 03:26:05;;;;;;;2.53;1.10;;;12.60;77.30;;;;;;5036153;28;20032;-87
2022/07/18 03:28:31;;;;;;;1.20;1.10;;;12.60;78.50;;;;;;5016578;28;20066;-86
2022/07/18 03:30:58;;;;;;;2.30;1.45;;;12.60;78.10;;;;;;5036327;28;20033;-86
2022/07/18 03:33:25;;;;;;;2.55;1.13;;;12.60;78.50;;;;;;5052786;28;20044;-85
2022/07/18 03:35:51;;;;;;;2.08;1.25;;;12.50;78.00;;;;;;5004172;28;20059;-85
2022/07/18 03:38:17;;;;;;;1.05;0.95;;;12.50;77.30;;;;;;5036766;28;20072;-86
2022/07/18 03:40:42;;;;;;;1.42;1.02;;;12.50;76.20;;;;;;5040231;28;20418;-85
2022/07/18 03:43:08;;;;;;;1.90;1.17;;;12.50;75.80;;;;;;5051218;28;20032;-86
2022/07/18 03:45:34;;;;;;;1.15;0.80;;;12.50;76.20;;;;;;5020906;28;20055;-87
2022/07/18 03:48:00;;;;;;;1.95;1.20;;;12.50;76.10;;;;;;5017862;28;20052;-87
2022/07/18 03:50:27;;;;;;;2.38;1.13;;;12.50;76.20;;;;;;5036320;28;20041;-87
2022/07/18 03:52:53;;;;;;;1.33;0.90;;;12.50;76.50;;;;;;5037204;28;20112;-85
2022/07/18 03:55:19;;;;;;;1.20;0.88;;;12.50;76.40;;;;;;5019861;28;20033;-85
2022/07/18 03:57:45;;;;;;;2.92;1.00;;;12.50;76.40;;;;;;5037337;28;20032;-85
2022/07/18 04:00:12;;;;;;;2.88;1.40;;;12.50;76.20;;;;;;5036331;28;20033;-84
2022/07/18 04:02:42;;;;;;;2.53;1.15;;;12.50;77.20;;;;;;5069581;28;20048;-87
2022/07/18 04:05:09;;;;;;;1.52;1.17;;;12.50;78.00;;;;;;5042459;28;20039;-87
2022/07/18 04:07:35;;;;;;;2.35;1.17;;;12.50;77.90;;;;;;5035273;28;20061;-86
2022/07/18 04:10:01;;;;;;;3.58;1.58;;;12.50;78.20;;;;;;5056748;28;20039;-86
2022/07/18 04:12:27;;;;;;;2.67;1.00;;;12.50;78.40;;;;;;5069194;28;20047;-84
2022/07/18 04:14:53;;;;;;;1.88;1.08;;;12.60;78.60;;;;;;5040963;28;20487;-86
2022/07/18 04:17:18;;;;;;;3.47;1.10;;;12.60;78.80;;;;;;5041298;28;20032;-87
2022/07/18 04:19:44;;;;;;;3.28;1.40;;;12.60;79.60;;;;;;5025859;28;20060;-88
2022/07/18 04:22:10;;;;;;;2.50;1.10;;;12.60;80.60;;;;;;5037692;28;20388;-87
2022/07/18 04:24:36;;;;;;;1.67;0.98;;;12.60;79.60;;;;;;5020218;28;20063;-85
2022/07/18 04:27:01;;;;;;;1.52;1.10;;;12.60;79.50;;;;;;5044021;28;20052;-86
2022/07/18 04:29:27;;;;;;;1.52;1.00;;;12.70;79.70;;;;;;5040253;28;20380;-87
2022/07/18 04:31:53;;;;;;;1.95;1.30;;;12.70;79.40;;;;;;5023782;28;20033;-85
2022/07/18 04:34:19;;;;;;;2.78;1.33;;;12.80;79.40;;;;;;5024817;28;20033;-87
2022/07/18 04:36:44;;;;;;;1.73;0.95;;;12.90;79.80;;;;;;5025332;28;20094;-85
2022/07/18 04:39:10;;;;;;;1.50;1.02;;;12.90;80.60;;;;;;5024479;28;20059;-87
2022/07/18 04:41:36;;;;;;;2.13;0.82;;;13.00;81.10;;;;;;5042164;28;20048;-86
2022/07/18 04:44:02;;;;;;;1.92;1.00;;;13.10;81.30;;;;;;5040302;28;20057;-87
2022/07/18 04:46:28;;;;;;;1.25;1.00;;;13.10;81.70;;;;;;5037134;28;20458;-87
2022/07/18 04:48:53;;;;;;;1.75;1.10;;;13.10;81.10;;;;;;5041848;28;20029;-88
2022/07/18 04:51:19;;;;;;;1.20;0.80;;;13.10;81.50;;;;;;5042082;28;20518;-87
2022/07/18 04:53:45;;;;;;;1.60;0.90;;;13.20;83.50;;;;;;5051172;28;20092;-85
2022/07/18 04:56:10;;;;;;;1.52;1.25;;;13.20;83.30;;;;;;5041069;28;20021;-85
2022/07/18 04:58:36;;;;;;;2.22;0.98;;;13.20;83.10;;;;;;5045471;28;20153;-87
2022/07/18 05:01:02;;;;;;;2.15;1.10;;;13.30;83.00;;;;;;5040051;28;20020;-87
2022/07/18 05:03:31;;;;;;;1.30;0.88;;;13.30;82.50;;;;;;5022758;28;20029;-87
2022/07/18 05:05:57;;;;;;;1.10;0.90;;;13.30;82.30;;;;;;5049789;28;20052;-85
2022/07/18 05:08:22;;;;;;;2.55;0.95;;;13.30;82.40;;;;;;5047351;28;20060;-84
2022/07/18 05:10:48;;;;;;;1.63;0.98;;;13.40;82.90;;;;;;5038088;28;20054;-84
2022/07/18 05:13:14;;;;;;;2.35;1.13;;;13.40;82.60;;;;;;5036174;28;20017;-87
2022/07/18 05:15:42;;;;;;;2.35;1.10;;;13.50;82.20;;;;;;5045050;28;20075;-86
2022/07/18 05:18:08;;;;;;;3.50;1.27;;;13.60;82.60;;;;;;5042249;28;20040;-87
2022/07/18 05:20:34;;;;;;;1.95;1.00;;;13.60;82.10;;;;;;5040490;28;20043;-87
2022/07/18 05:23:00;;;;;;;1.15;0.80;;;13.70;82.70;;;;;;5030877;28;20063;-86
2022/07/18 05:25:26;;;;;;;1.33;0.70;;;13.80;81.70;;;;;;5039458;28;20037;-87
2022/07/18 05:27:52;;;;;;;1.10;1.00;;;14.00;81.20;;;;;;5056010;28;20056;-86
2022/07/18 05:30:19;;;;;;;1.10;0.80;;;14.10;81.40;;;;;;5041758;28;20479;-85
2022/07/18 05:32:45;;;;;;;4.47;1.23;;;14.20;81.00;;;;;;5052734;28;20033;-86
2022/07/18 05:35:12;;;;;;;1.23;0.90;;;14.40;81.00;;;;;;5056504;28;20025;-87
2022/07/18 05:37:38;;;;;;;2.08;0.80;;;14.60;80.90;;;;;;5052416;28;20037;-85
2022/07/18 05:40:06;;;;;;;3.85;0.90;;;15.00;79.60;;;;;;5055594;28;20028;-86
2022/07/18 05:42:32;;;;;;;1.05;0.95;;;15.50;77.90;;;;;;5057690;28;20033;-84
2022/07/18 05:44:58;;;;;;;1.02;0.90;;;16.10;76.60;;;;;;5048739;28;20695;-88
2022/07/18 05:47:23;;;;;;;1.95;1.25;;;16.70;74.90;;;;;;5040290;28;20115;-88
2022/07/18 05:49:49;;;;;;;1.02;0.90;;;17.30;74.00;;;;;;5023177;28;20066;-87
2022/07/18 05:52:15;;;;;;;3.13;1.40;;;17.80;72.20;;;;;;5028508;28;20032;-86
2022/07/18 05:54:43;;;;;;;2.95;1.20;;;18.20;71.90;;;;;;5040022;28;20020;-86
2022/07/18 05:57:09;;;;;;;2.65;1.33;;;18.70;71.10;;;;;;5066804;28;20441;-86
2022/07/18 05:59:35;;;;;;;2.25;1.20;;;19.30;70.00;;;;;;5041295;28;20032;-86
2022/07/18 06:02:01;;;;;;;1.27;1.00;;;19.80;67.30;;;;;;5058446;28;20028;-85
2022/07/18 06:04:29;;;;;;;3.22;1.00;;;20.20;65.40;;;;;;5045128;28;20104;-86
2022/07/18 06:06:55;;;;;;;3.10;1.17;;;20.70;59.10;;;;;;5037392;28;20075;-85
2022/07/18 06:09:21;;;;;;;1.05;0.95;;;21.00;58.80;;;;;;5021072;28;20056;-86
2022/07/18 06:11:50;;;;;;;1.10;0.80;;;21.30;56.50;;;;;;5035036;28;20108;-85
2022/07/18 06:14:16;;;;;;;1.13;1.00;;;21.70;57.50;;;;;;5046228;28;20490;-86
2022/07/18 06:16:42;;;;;;;1.60;0.95;;;22.00;55.90;;;;;;5047969;28;20058;-86
2022/07/18 06:19:07;;;;;;;2.40;0.93;;;22.30;55.40;;;;;;5037252;28;20032;-85
2022/07/18 06:21:33;;;;;;;1.63;0.80;;;22.60;55.50;;;;;;5051078;28;20060;-85
2022/07/18 06:24:01;;;;;;;2.60;0.80;;;22.80;54.20;;;;;;5041358;28;20048;-86
2022/07/18 06:26:27;;;;;;;0.93;0.82;;;23.10;52.80;;;;;;5038996;28;20040;-84
2022/07/18 06:28:53;;;;;;;3.28;0.95;;;23.50;54.40;;;;;;5037661;28;20028;-85
2022/07/18 06:31:19;;;;;;;2.35;1.15;;;23.70;51.80;;;;;;5024748;28;20029;-85
2022/07/18 06:33:44;;;;;;;1.42;0.80;;;23.70;50.40;;;;;;5053407;28;20094;-84
2022/07/18 06:36:13;;;;;;;1.52;0.77;;;23.90;51.80;;;;;;5036319;28;20059;-86
2022/07/18 06:38:40;;;;;;;1.35;0.68;;;24.10;48.10;;;;;;5039275;28;20063;-86
2022/07/18 06:41:06;;;;;;;1.52;0.60;;;24.40;47.30;;;;;;5034766;28;20507;-84
2022/07/18 06:43:37;;;;;;;1.45;0.90;;;24.20;46.90;;;;;;5049378;28;20118;-86
2022/07/18 06:46:03;;;;;;;5.13;0.73;;;24.00;45.90;;;;;;5043973;28;20029;-84
2022/07/18 06:48:33;;;;;;;2.05;1.00;;;23.90;46.30;;;;;;5048171;28;20475;-85
2022/07/18 06:51:01;;;;;;;1.65;0.60;;;24.10;47.20;;;;;;5047601;28;20091;-86
2022/07/18 06:53:27;;;;;;;1.83;1.00;;;24.40;46.10;;;;;;5035207;28;20036;-86
2022/07/18 06:55:53;;;;;;;0.75;0.73;;;24.70;45.70;;;;;;5034292;28;20090;-85
2022/07/18 06:58:19;;;;;;;3.33;0.80;;;25.00;45.40;;;;;;5023778;28;20694;-84
2022/07/18 07:00:45;;;;;;;4.63;0.80;;;25.10;45.60;;;;;;5029810;28;20060;-84
2022/07/18 07:03:11;;;;;;;1.42;0.73;;;25.50;44.00;;;;;;5046622;28;20024;-83
2022/07/18 07:05:39;;;;;;;1.85;1.00;;;25.70;45.70;;;;;;5047553;28;20027;-85
2022/07/18 07:08:05;;;;;;;1.38;1.00;;;26.00;43.60;;;;;;5018718;28;20037;-85
2022/07/18 07:10:31;;;;;;;2.47;0.98;;;25.90;43.00;;;;;;5034527;28;20709;-85
2022/07/18 07:12:57;;;;;;;1.73;0.73;;;26.00;43.60;;;;;;5016275;28;20028;-85
2022/07/18 07:15:23;;;;;;;1.08;0.80;;;26.30;43.90;;;;;;5019401;28;20073;-85
2022/07/18 07:17:50;;;;;;;1.30;0.98;;;26.40;43.60;;;;;;5019363;28;20477;-86
2022/07/18 07:20:21;;;;;;;0.93;0.75;;;27.00;42.70;;;;;;5048889;28;20483;-87
2022/07/18 07:22:54;;;;;;;2.20;1.00;;;27.20;42.10;;;;;;5046495;28;20068;-87
2022/07/18 07:25:24;;;;;;;1.90;0.80;;;27.60;41.30;;;;;;5044544;28;20032;-85
2022/07/18 07:27:52;;;;;;;3.72;0.85;;;27.60;40.20;;;;;;5031766;28;20041;-85
2022/07/18 07:30:17;;;;;;;2.30;1.65;;;27.50;46.30;;;;;;5040727;28;20737;-86
2022/07/18 07:32:45;;;;;;;4.82;1.00;;;27.70;41.80;;;;;;5029805;28;20131;-86
2022/07/18 07:35:13;;;;;;;3.42;1.00;;;28.10;40.50;;;;;;5030752;28;20035;-85
2022/07/18 07:37:41;;;;;;;2.70;0.90;;;28.10;40.40;;;;;;5016810;28;20039;-86
2022/07/18 07:40:08;;;;;;;3.05;0.88;;;28.30;41.60;;;;;;5066796;28;20037;-85
2022/07/18 07:42:34;;;;;;;2.08;1.15;;;28.40;39.80;;;;;;5046437;28;20032;-86
2022/07/18 07:44:59;;;;;;;1.88;1.00;;;28.20;41.50;;;;;;5021502;28;20032;-87
2022/07/18 07:47:25;;;;;;;2.08;0.70;;;28.50;39.90;;;;;;5001345;28;20040;-86
2022/07/18 07:49:52;;;;;;;1.23;0.93;;;28.60;41.20;;;;;;5037192;28;20033;-86
2022/07/18 07:52:19;;;;;;;2.17;0.88;;;28.30;39.00;;;;;;5037888;28;20067;-87
2022/07/18 07:54:44;;;;;;;1.35;0.90;;;28.50;40.10;;;;;;5033509;28;20510;-86
2022/07/18 07:57:11;;;;;;;2.00;0.75;;;28.90;41.10;;;;;;5033995;22;20044;-80
2022/07/18 07:59:37;;;;;;;2.55;0.88;;;29.40;40.50;;;;;;5079446;28;20032;-80
2022/07/18 08:02:05;;;;;;;1.88;1.10;;;29.50;38.70;;;;;;5078063;28;20028;-80
2022/07/18 08:04:31;;;;;;;0.80;0.80;;;29.80;40.40;;;;;;5087490;28;20034;-79
2022/07/18 08:06:57;;;;;;;1.30;1.08;;;30.00;40.50;;;;;;5081253;28;20035;-79
2022/07/18 08:09:22;;;;;;;3.50;1.00;;;29.90;37.20;;;;;;5082364;28;20033;-80
2022/07/18 08:11:48;;;;;;;0.77;0.77;;;29.50;39.00;;;;;;5070077;28;20058;-80
2022/07/18 08:14:14;;;;;;;1.35;1.00;;;29.20;42.20;;;;;;5082683;28;20031;-79
2022/07/18 08:16:40;;;;;;;1.13;0.75;;;28.90;40.00;;;;;;5090563;28;20033;-80
2022/07/18 08:19:06;;;;;;;3.60;1.00;;;28.70;42.60;;;;;;5089007;28;20039;-80
2022/07/18 08:21:32;;;;;;;2.08;0.80;;;28.30;39.40;;;;;;5084692;28;20109;-80
2022/07/18 08:23:58;;;;;;;0.90;0.77;;;27.90;42.30;;;;;;5083065;28;20058;-79
2022/07/18 08:26:23;;;;;;;1.73;0.93;;;27.90;42.90;;;;;;5089748;28;20041;-79
2022/07/18 08:28:49;;;;;;;2.85;1.00;;;28.00;42.80;;;;;;5090545;28;20029;-79
2022/07/18 08:31:16;;;;;;;2.13;1.38;;;28.00;43.00;;;;;;5089867;28;20755;-79
2022/07/18 08:33:42;;;;;;;1.77;1.10;;;28.10;42.60;;;;;;5081635;28;20024;-79
2022/07/18 08:36:08;;;;;;;2.65;0.80;;;28.00;42.00;;;;;;5086875;28;20553;-79
2022/07/18 08:38:34;;;;;;;1.35;0.88;;;27.90;40.00;;;;;;5088094;28;20114;-79
2022/07/18 08:41:01;;;;;;;0.60;0.60;;;27.70;41.00;;;;;;5085197;28;20123;-80
2022/07/18 08:43:27;;;;;;;4.50;1.10;;;27.70;43.00;;;;;;5064212;28;20052;-80
2022/07/18 08:46:02;;;;;;;1.45;1.00;;;27.60;42.90;;;;;;5071899;28;20032;-79
2022/07/18 08:48:29;;;;;;;0.77;0.73;;;27.60;42.00;;;;;;5101713;28;20027;-78
2022/07/18 08:50:54;;;;;;;1.95;1.23;;;27.60;42.40;;;;;;5087361;28;20032;-79
2022/07/18 08:53:20;;;;;;;2.05;0.90;;;27.60;41.50;;;;;;5094365;28;20478;-79
2022/07/18 08:55:47;;;;;;;1.15;1.00;;;27.50;39.50;;;;;;5092423;28;20031;-80
2022/07/18 08:58:15;;;;;;;7.07;2.13;;;27.60;40.60;;;;;;5093761;28;20097;-80
2022/07/18 09:00:47;;;;;;;2.15;0.98;;;27.70;42.50;;;;;;5086198;28;20024;-79
2022/07/18 09:03:13;;;;;;;3.10;0.80;;;27.70;39.80;;;;;;5084936;28;20076;-80
2022/07/18 09:05:41;;;;;;;1.88;0.65;;;28.00;41.30;;;;;;5072024;28;20758;-80
2022/07/18 09:08:21;;;;;;;1.70;0.80;;;28.10;41.60;;;;;;5086521;28;20074;-80
2022/07/18 09:11:00;;;;;;;0.57;0.57;;;28.10;40.00;;;;;;5074031;28;20032;-81
2022/07/18 09:13:38;;;;;;;1.67;1.05;;;28.10;39.70;;;;;;5079140;28;20032;-81
2022/07/18 09:16:07;;;;;;;1.17;0.90;;;27.70;38.10;;;;;;5084776;28;20390;-80
2022/07/18 09:18:34;;;;;;;1.00;0.80;;;27.40;39.10;;;;;;5085850;28;20386;-79
2022/07/18 09:21:03;;;;;;;2.10;0.70;;;27.20;38.50;;;;;;5097566;28;20024;-80
2022/07/18 09:23:31;;;;;;;0.55;0.55;;;27.20;36.50;;;;;;5079448;28;20490;-80
2022/07/18 09:25:57;;;;;;;1.35;0.80;;;27.10;37.20;;;;;;5083526;28;20088;-80
2022/07/18 09:28:23;;;;;;;1.23;0.80;;;27.10;36.90;;;;;;5091117;28;20032;-80
2022/07/18 09:30:48;;;;;;;4.13;0.73;;;27.00;37.40;;;;;;5081006;28;20066;-82
2022/07/18 09:33:15;;;;;;;2.45;0.63;;;27.00;38.10;;;;;;5085659;28;20024;-79
2022/07/18 09:35:46;;;;;;;1.13;1.02;;;27.00;39.20;;;;;;5085544;28;20695;-79
2022/07/18 09:38:27;;;;;;;0.82;0.82;;;27.10;41.70;;;;;;5077272;28;20032;-80
2022/07/18 09:40:54;;;;;;;2.35;0.77;;;27.10;40.20;;;;;;5057685;28;20040;-80
2022/07/18 09:43:22;;;;;;;2.10;0.80;;;27.20;40.10;;;;;;5082909;28;20031;-80
2022/07/18 09:45:56;;;;;;;1.05;0.70;;;27.00;39.90;;;;;;5081960;28;20508;-79
2022/07/18 09:48:24;;;;;;;1.13;0.65;;;27.00;38.50;;;;;;5099412;28;20023;-80
2022/07/18 09:50:55;;;;;;;1.13;0.65;;;27.00;38.80;;;;;;5096288;28;20104;-80
2022/07/18 09:53:26;;;;;;;0.88;0.80;;;27.00;40.20;;;;;;5068036;28;20093;-80
2022/07/18 09:56:02;;;;;;;1.42;0.70;;;27.00;37.60;;;;;;5061643;28;20730;-80
2022/07/18 09:58:34;;;;;;;1.00;0.80;;;26.80;38.00;;;;;;5059065;28;20040;-79
2022/07/18 10:01:02;;;;;;;1.17;0.70;;;26.70;37.90;;;;;;5088373;28;20040;-81
2022/07/18 10:03:28;;;;;;;3.35;0.57;;;26.70;39.10;;;;;;5096554;28;20599;-81
2022/07/18 10:05:56;;;;;;;0.75;0.57;;;26.80;40.70;;;;;;5084633;28;20055;-80
2022/07/18 10:08:24;;;;;;;1.08;0.60;;;26.90;42.30;;;;;;5083476;28;20489;-81
2022/07/18 10:10:52;;;;;;;5.35;0.70;;;26.90;38.00;;;;;;5076949;28;20514;-81
2022/07/18 10:13:19;;;;;;;4.25;0.80;;;26.90;37.20;;;;;;5062165;28;20060;-83
2022/07/18 10:15:47;;;;;;;1.00;0.93;;;26.90;38.90;;;;;;5076263;28;20069;-84
2022/07/18 10:18:21;;;;;;;1.88;0.65;;;26.70;37.60;;;;;;5074601;28;20058;-82
2022/07/18 10:21:02;;;;;;;1.58;0.55;;;26.70;38.80;;;;;;5094578;28;20039;-82
2022/07/18 10:23:37;;;;;;;1.33;0.70;;;26.70;37.90;;;;;;5080785;28;20103;-82
2022/07/18 10:26:19;;;;;;;6.50;1.35;;;26.70;37.10;;;;;;5066067;28;20032;-81
2022/07/18 10:31:38;;;;;;;0.70;0.70;;;26.80;37.70;;;;;;5084905;28;20031;-81
2022/07/18 10:34:06;;;;;;;1.23;0.70;;;26.90;39.10;;;;;;5089590;28;20533;-81
2022/07/18 10:36:34;;;;;;;2.17;0.80;;;27.00;38.50;;;;;;5069003;28;20123;-81
2022/07/18 10:39:19;;;;;;;1.50;0.55;;;27.10;39.00;;;;;;5074859;28;20606;-81
2022/07/18 10:41:51;;;;;;;1.48;0.55;;;27.20;39.50;;;;;;5063994;28;20162;-82
2022/07/18 10:44:23;;;;;;;0.75;0.70;;;27.30;39.10;;;;;;5079684;28;20032;-79
2022/07/18 10:47:12;;;;;;;0.63;0.52;;;27.40;38.70;;;;;;5088312;28;20032;-80
2022/07/18 10:49:49;;;;;;;0.63;0.60;;;27.40;39.10;;;;;;5089669;28;20493;-80
2022/07/18 10:52:29;;;;;;;0.60;0.50;;;27.50;37.80;;;;;;5084679;28;20028;-81
2022/07/18 10:55:16;;;;;;;0.93;0.55;;;27.50;38.40;;;;;;5074642;28;20109;-79
2022/07/18 10:58:05;;;;;;;1.30;0.52;;;27.50;38.40;;;;;;5068976;28;20028;-79
2022/07/18 11:00:36;;;;;;;0.90;0.50;;;27.70;37.30;;;;;;5073225;28;20028;-80
2022/07/18 11:03:07;;;;;;;2.85;0.60;;;27.70;38.30;;;;;;5082563;28;20032;-82
2022/07/18 11:05:50;;;;;;;1.17;0.70;;;27.80;38.50;;;;;;5082407;28;20118;-80
2022/07/18 11:08:18;;;;;;;1.02;0.88;;;27.80;37.90;;;;;;5110728;28;20035;-79
2022/07/18 11:10:44;;;;;;;2.15;0.60;;;27.90;36.80;;;;;;5071666;28;20698;-79
2022/07/18 11:13:28;;;;;;;0.85;0.85;;;27.90;37.60;;;;;;5070486;28;20052;-81
2022/07/18 11:16:08;;;;;;;3.70;2.25;;;28.00;37.60;;;;;;5086120;28;20054;-79
2022/07/18 11:18:40;;;;;;;2.65;0.60;;;28.00;37.30;;;;;;5083098;28;20062;-81
2022/07/18 11:21:18;;;;;;;0.85;0.60;;;28.10;37.50;;;;;;5083874;28;20539;-83
2022/07/18 11:23:46;;;;;;;2.83;1.00;;;28.10;36.60;;;;;;5061184;28;20036;-83
2022/07/18 11:26:33;;;;;;;0.73;0.70;;;28.10;36.40;;;;;;5088174;28;20824;-80
2022/07/18 11:29:01;;;;;;;1.75;0.80;;;28.10;37.20;;;;;;5086065;28;20027;-81
2022/07/18 11:31:28;;;;;;;1.58;0.70;;;28.10;36.10;;;;;;5085577;28;20486;-81
2022/07/18 11:33:55;;;;;;;2.65;0.80;;;28.10;35.30;;;;;;5032098;28;20036;-81
2022/07/18 11:36:27;;;;;;;0.70;0.70;;;28.10;36.30;;;;;;5067139;28;20122;-82
2022/07/18 11:39:00;;;;;;;1.85;0.70;;;28.10;38.10;;;;;;5087814;28;20081;-82
2022/07/18 11:41:26;;;;;;;0.80;0.63;;;28.20;38.70;;;;;;5077566;28;20024;-81
2022/07/18 11:43:54;;;;;;;0.90;0.60;;;28.40;37.30;;;;;;5078635;28;20103;-81
2022/07/18 11:46:24;;;;;;;0.60;0.60;;;28.50;38.10;;;;;;5082109;28;20054;-80
2022/07/18 11:49:02;;;;;;;0.95;0.60;;;28.50;35.30;;;;;;5085970;28;20035;-83
2022/07/18 11:51:37;;;;;;;1.27;0.70;;;28.50;37.90;;;;;;5048138;28;20467;-83
2022/07/18 11:54:04;;;;;;;0.68;0.63;;;28.60;38.20;;;;;;5067257;28;20039;-81
2022/07/18 11:56:29;;;;;;;0.77;0.55;;;28.70;38.40;;;;;;5061555;28;20028;-81
2022/07/18 11:58:57;;;;;;;3.17;0.75;;;28.80;34.80;;;;;;5066212;28;20145;-80
2022/07/18 12:01:33;;;;;;;2.55;0.80;;;28.90;35.80;;;;;;5064794;28;20119;-80
2022/07/18 12:03:59;;;;;;;;;;;29.10;35.90;;;;;;5083045;28;20481;-80
2022/07/18 12:06:27;;;;;;;1.00;0.80;;;29.20;35.40;;;;;;5086968;28;19915;-81
2022/07/18 12:09:00;;;;;;;1.50;0.80;;;29.20;35.60;;;;;;5086937;28;20028;-81
2022/07/18 12:11:38;;;;;;;1.35;0.82;;;29.40;35.70;;;;;;5066755;28;20024;-81
2022/07/18 12:14:06;;;;;;;2.85;0.93;;;29.40;36.60;;;;;;5061543;28;20031;-80
2022/07/18 12:16:38;;;;;;;2.03;0.70;;;29.50;35.00;;;;;;5069754;28;20020;-80
2022/07/18 12:19:12;;;;;;;3.33;0.55;;;29.40;36.00;;;;;;5089828;28;20497;-81
2022/07/18 12:21:49;;;;;;;1.10;0.65;;;29.60;36.10;;;;;;5071232;28;20034;-81
2022/07/18 12:24:47;;;;;;;0.50;0.50;;;29.90;35.70;;;;;;5081237;28;20074;-83
2022/07/18 12:27:16;;;;;;;0.85;0.60;;;30.10;34.80;;;;;;5088189;28;20031;-81
2022/07/18 12:30:12;;;;;;;1.27;0.73;;;30.30;35.30;;;;;;5104414;28;20022;-82
2022/07/18 12:32:41;;;;;;;1.33;0.63;;;30.50;34.90;;;;;;5093559;28;20482;-81
2022/07/18 12:35:27;;;;;;;1.50;0.73;;;30.70;34.60;;;;;;5092611;28;20028;-81
2022/07/18 12:38:03;;;;;;;1.25;0.70;;;30.80;33.80;;;;;;5105384;28;20055;-80
2022/07/18 12:40:58;;;;;;;3.95;0.55;;;30.90;33.40;;;;;;5101793;28;20489;-81
2022/07/18 12:43:30;;;;;;;1.88;0.50;;;31.10;33.60;;;;;;5088126;28;20032;-82
2022/07/18 12:45:57;;;;;;;0.55;0.55;;;31.20;33.30;;;;;;5103259;28;20032;-82
2022/07/18 12:48:23;;;;;;;1.25;1.00;;;31.20;32.90;;;;;;5093809;28;20040;-82
2022/07/18 12:51:03;;;;;;;1.33;0.80;;;31.20;31.90;;;;;;5074404;28;20032;-80
2022/07/18 12:53:31;;;;;;;0.50;0.50;;;31.20;31.90;;;;;;5101408;28;20386;-81
2022/07/18 12:55:58;;;;;;;1.00;0.70;;;31.10;31.70;;;;;;5100144;28;20747;-82